sensor_id;sensor_type;location;lat;lon;timestamp;P1;durP1;ratioP1;P2;durP2;ratioP2
69047;SDS011;56119;50.118;8.642;2023-02-11T00:02:04;63.60;;;37.33;;
69047;SDS011;56119;50.118;8.642;2023-02-11T00:04:32;58.87;;;35.13;;
69047;SDS011;56119;50.118;8.642;2023-02-11T00:06:58;62.83;;;36.70;;
69047;SDS011;56119;50.118;8.642;2023-02-11T00:09:24;62.70;;;36.23;;
69047;SDS011;56119;50.118;8.642;2023-02-11T00:11:49;62.97;;;37.25;;
69047;SDS011;56119;50.118;8.642;2023-02-11T00:14:15;61.35;;;36.28;;
69047;SDS011;56119;50.118;8.642;2023-02-11T00:16:41;59.08;;;36.42;;
69047;SDS011;56119;50.118;8.642;2023-02-11T00:19:08;63.05;;;36.40;;
69047;SDS011;56119;50.118;8.642;2023-02-11T00:21:34;59.95;;;35.60;;
69047;SDS011;56119;50.118;8.642;2023-02-11T00:24:00;58.17;;;35.38;;
69047;SDS011;56119;50.118;8.642;2023-02-11T00:26:27;60.42;;;35.03;;
69047;SDS011;56119;50.118;8.642;2023-02-11T00:28:54;57.58;;;34.67;;
69047;SDS011;56119;50.118;8.642;2023-02-11T00:31:23;59.38;;;34.72;;
69047;SDS011;56119;50.118;8.642;2023-02-11T00:33:49;59.88;;;35.45;;
69047;SDS011;56119;50.118;8.642;2023-02-11T00:36:16;58.47;;;36.13;;
69047;SDS011;56119;50.118;8.642;2023-02-11T00:38:43;57.83;;;36.28;;
69047;SDS011;56119;50.118;8.642;2023-02-11T00:41:10;60.42;;;35.28;;
69047;SDS011;56119;50.118;8.642;2023-02-11T00:43:37;62.58;;;36.20;;
69047;SDS011;56119;50.118;8.642;2023-02-11T00:46:03;60.88;;;35.67;;
69047;SDS011;56119;50.118;8.642;2023-02-11T00:48:29;57.42;;;34.55;;
69047;SDS011;56119;50.118;8.642;2023-02-11T00:50:55;60.85;;;37.10;;
69047;SDS011;56119;50.118;8.642;2023-02-11T00:53:21;61.00;;;34.85;;
69047;SDS011;56119;50.118;8.642;2023-02-11T00:55:47;60.53;;;35.45;;
69047;SDS011;56119;50.118;8.642;2023-02-11T00:58:13;63.25;;;35.25;;
69047;SDS011;56119;50.118;8.642;2023-02-11T01:00:39;58.67;;;35.78;;
69047;SDS011;56119;50.118;8.642;2023-02-11T01:03:05;56.95;;;34.70;;
69047;SDS011;56119;50.118;8.642;2023-02-11T01:05:31;57.75;;;35.25;;
69047;SDS011;56119;50.118;8.642;2023-02-11T01:07:57;61.55;;;35.53;;
69047;SDS011;56119;50.118;8.642;2023-02-11T01:10:23;59.70;;;36.08;;
69047;SDS011;56119;50.118;8.642;2023-02-11T01:12:49;59.42;;;36.55;;
69047;SDS011;56119;50.118;8.642;2023-02-11T01:15:16;63.92;;;34.88;;
69047;SDS011;56119;50.118;8.642;2023-02-11T01:17:42;53.88;;;34.35;;
69047;SDS011;56119;50.118;8.642;2023-02-11T01:20:12;62.53;;;34.47;;
69047;SDS011;56119;50.118;8.642;2023-02-11T01:22:38;59.17;;;35.70;;
69047;SDS011;56119;50.118;8.642;2023-02-11T01:25:05;61.60;;;35.25;;
69047;SDS011;56119;50.118;8.642;2023-02-11T01:27:31;57.30;;;34.30;;
69047;SDS011;56119;50.118;8.642;2023-02-11T01:29:57;64.65;;;36.38;;
69047;SDS011;56119;50.118;8.642;2023-02-11T01:32:23;66.73;;;37.17;;
69047;SDS011;56119;50.118;8.642;2023-02-11T01:34:49;61.53;;;35.38;;
69047;SDS011;56119;50.118;8.642;2023-02-11T01:37:15;62.35;;;36.55;;
69047;SDS011;56119;50.118;8.642;2023-02-11T01:39:41;63.53;;;37.85;;
69047;SDS011;56119;50.118;8.642;2023-02-11T01:42:10;63.92;;;36.50;;
69047;SDS011;56119;50.118;8.642;2023-02-11T01:44:37;63.20;;;34.95;;
69047;SDS011;56119;50.118;8.642;2023-02-11T01:47:04;58.67;;;34.47;;
69047;SDS011;56119;50.118;8.642;2023-02-11T01:49:31;65.10;;;35.87;;
69047;SDS011;56119;50.118;8.642;2023-02-11T01:52:00;62.37;;;35.33;;
69047;SDS011;56119;50.118;8.642;2023-02-11T01:54:31;66.00;;;37.87;;
69047;SDS011;56119;50.118;8.642;2023-02-11T01:57:17;64.43;;;36.80;;
69047;SDS011;56119;50.118;8.642;2023-02-11T02:02:14;64.37;;;38.00;;
69047;SDS011;56119;50.118;8.642;2023-02-11T02:04:44;68.70;;;37.57;;
69047;SDS011;56119;50.118;8.642;2023-02-11T02:07:13;64.40;;;36.57;;
69047;SDS011;56119;50.118;8.642;2023-02-11T02:09:43;62.83;;;37.03;;
69047;SDS011;56119;50.118;8.642;2023-02-11T02:12:10;63.37;;;37.10;;
69047;SDS011;56119;50.118;8.642;2023-02-11T02:14:40;61.63;;;35.47;;
69047;SDS011;56119;50.118;8.642;2023-02-11T02:17:07;67.27;;;35.90;;
69047;SDS011;56119;50.118;8.642;2023-02-11T02:22:05;65.13;;;36.93;;
69047;SDS011;56119;50.118;8.642;2023-02-11T02:35:14;67.57;;;38.87;;
69047;SDS011;56119;50.118;8.642;2023-02-11T02:40:15;66.93;;;38.13;;
69047;SDS011;56119;50.118;8.642;2023-02-11T02:42:41;69.97;;;38.03;;
69047;SDS011;56119;50.118;8.642;2023-02-11T02:45:08;65.80;;;36.53;;
69047;SDS011;56119;50.118;8.642;2023-02-11T02:47:36;62.90;;;37.13;;
69047;SDS011;56119;50.118;8.642;2023-02-11T02:50:03;64.70;;;37.23;;
69047;SDS011;56119;50.118;8.642;2023-02-11T02:52:41;62.10;;;36.00;;
69047;SDS011;56119;50.118;8.642;2023-02-11T03:06:20;70.13;;;38.33;;
69047;SDS011;56119;50.118;8.642;2023-02-11T03:11:03;64.18;;;36.67;;
69047;SDS011;56119;50.118;8.642;2023-02-11T03:13:30;60.17;;;36.28;;
69047;SDS011;56119;50.118;8.642;2023-02-11T03:15:57;62.73;;;36.07;;
69047;SDS011;56119;50.118;8.642;2023-02-11T03:18:25;57.20;;;36.45;;
69047;SDS011;56119;50.118;8.642;2023-02-11T03:20:52;64.60;;;37.03;;
69047;SDS011;56119;50.118;8.642;2023-02-11T03:23:32;59.88;;;35.65;;
69047;SDS011;56119;50.118;8.642;2023-02-11T03:26:08;63.33;;;35.75;;
69047;SDS011;56119;50.118;8.642;2023-02-11T03:31:09;68.13;;;38.58;;
69047;SDS011;56119;50.118;8.642;2023-02-11T03:33:40;67.80;;;37.20;;
69047;SDS011;56119;50.118;8.642;2023-02-11T03:36:09;66.22;;;36.58;;
69047;SDS011;56119;50.118;8.642;2023-02-11T03:38:41;62.97;;;34.75;;
69047;SDS011;56119;50.118;8.642;2023-02-11T03:41:09;62.83;;;36.05;;
69047;SDS011;56119;50.118;8.642;2023-02-11T03:43:42;62.08;;;36.58;;
69047;SDS011;56119;50.118;8.642;2023-02-11T03:46:09;63.00;;;37.38;;
69047;SDS011;56119;50.118;8.642;2023-02-11T03:48:37;65.40;;;36.75;;
69047;SDS011;56119;50.118;8.642;2023-02-11T03:51:06;63.67;;;36.58;;
69047;SDS011;56119;50.118;8.642;2023-02-11T03:53:33;65.38;;;35.65;;
69047;SDS011;56119;50.118;8.642;2023-02-11T03:56:00;63.22;;;35.90;;
69047;SDS011;56119;50.118;8.642;2023-02-11T03:58:27;58.60;;;35.20;;
69047;SDS011;56119;50.118;8.642;2023-02-11T04:00:53;62.42;;;36.65;;
69047;SDS011;56119;50.118;8.642;2023-02-11T04:03:19;59.38;;;35.70;;
69047;SDS011;56119;50.118;8.642;2023-02-11T04:05:45;65.03;;;35.92;;
69047;SDS011;56119;50.118;8.642;2023-02-11T04:08:12;63.65;;;37.30;;
69047;SDS011;56119;50.118;8.642;2023-02-11T04:10:39;62.10;;;35.93;;
69047;SDS011;56119;50.118;8.642;2023-02-11T04:13:05;63.00;;;35.20;;
69047;SDS011;56119;50.118;8.642;2023-02-11T04:15:31;60.85;;;34.42;;
69047;SDS011;56119;50.118;8.642;2023-02-11T04:17:57;61.90;;;36.73;;
69047;SDS011;56119;50.118;8.642;2023-02-11T04:20:23;58.72;;;35.47;;
69047;SDS011;56119;50.118;8.642;2023-02-11T04:22:49;60.75;;;35.72;;
69047;SDS011;56119;50.118;8.642;2023-02-11T04:25:15;59.85;;;34.20;;
69047;SDS011;56119;50.118;8.642;2023-02-11T04:27:41;60.13;;;35.38;;
69047;SDS011;56119;50.118;8.642;2023-02-11T04:30:07;63.88;;;36.20;;
69047;SDS011;56119;50.118;8.642;2023-02-11T04:32:33;59.53;;;37.28;;
69047;SDS011;56119;50.118;8.642;2023-02-11T04:34:59;56.65;;;33.42;;
69047;SDS011;56119;50.118;8.642;2023-02-11T04:37:26;56.95;;;35.53;;
69047;SDS011;56119;50.118;8.642;2023-02-11T04:39:52;56.47;;;35.20;;
69047;SDS011;56119;50.118;8.642;2023-02-11T04:42:18;62.10;;;34.75;;
69047;SDS011;56119;50.118;8.642;2023-02-11T04:44:44;61.20;;;35.10;;
69047;SDS011;56119;50.118;8.642;2023-02-11T04:47:10;58.15;;;36.10;;
69047;SDS011;56119;50.118;8.642;2023-02-11T04:49:37;60.25;;;34.53;;
69047;SDS011;56119;50.118;8.642;2023-02-11T04:52:03;56.72;;;33.47;;
69047;SDS011;56119;50.118;8.642;2023-02-11T04:54:29;58.17;;;34.70;;
69047;SDS011;56119;50.118;8.642;2023-02-11T04:56:55;58.25;;;33.88;;
69047;SDS011;56119;50.118;8.642;2023-02-11T04:59:21;56.95;;;35.42;;
69047;SDS011;56119;50.118;8.642;2023-02-11T05:01:47;64.60;;;34.55;;
69047;SDS011;56119;50.118;8.642;2023-02-11T05:04:14;56.85;;;33.38;;
69047;SDS011;56119;50.118;8.642;2023-02-11T05:06:39;56.38;;;33.65;;
69047;SDS011;56119;50.118;8.642;2023-02-11T05:09:06;62.22;;;35.58;;
69047;SDS011;56119;50.118;8.642;2023-02-11T05:11:32;61.30;;;36.47;;
69047;SDS011;56119;50.118;8.642;2023-02-11T05:13:58;57.05;;;32.63;;
69047;SDS011;56119;50.118;8.642;2023-02-11T05:16:24;61.60;;;34.55;;
69047;SDS011;56119;50.118;8.642;2023-02-11T05:18:50;61.80;;;33.60;;
69047;SDS011;56119;50.118;8.642;2023-02-11T05:21:17;56.20;;;33.92;;
69047;SDS011;56119;50.118;8.642;2023-02-11T05:23:43;55.45;;;33.28;;
69047;SDS011;56119;50.118;8.642;2023-02-11T05:26:10;59.10;;;34.55;;
69047;SDS011;56119;50.118;8.642;2023-02-11T05:28:36;58.47;;;33.67;;
69047;SDS011;56119;50.118;8.642;2023-02-11T05:31:03;56.38;;;35.72;;
69047;SDS011;56119;50.118;8.642;2023-02-11T05:33:29;56.63;;;33.17;;
69047;SDS011;56119;50.118;8.642;2023-02-11T05:36:02;61.17;;;35.55;;
69047;SDS011;56119;50.118;8.642;2023-02-11T05:38:28;55.80;;;32.88;;
69047;SDS011;56119;50.118;8.642;2023-02-11T05:40:54;57.38;;;32.83;;
69047;SDS011;56119;50.118;8.642;2023-02-11T05:43:20;59.15;;;33.67;;
69047;SDS011;56119;50.118;8.642;2023-02-11T05:45:46;55.67;;;31.83;;
69047;SDS011;56119;50.118;8.642;2023-02-11T05:48:12;53.22;;;31.85;;
69047;SDS011;56119;50.118;8.642;2023-02-11T05:50:38;53.88;;;32.55;;
69047;SDS011;56119;50.118;8.642;2023-02-11T05:53:05;53.22;;;31.25;;
69047;SDS011;56119;50.118;8.642;2023-02-11T05:55:31;54.72;;;32.00;;
69047;SDS011;56119;50.118;8.642;2023-02-11T05:57:57;50.97;;;32.28;;
69047;SDS011;56119;50.118;8.642;2023-02-11T06:00:23;57.35;;;33.58;;
69047;SDS011;56119;50.118;8.642;2023-02-11T06:02:49;57.42;;;32.50;;
69047;SDS011;56119;50.118;8.642;2023-02-11T06:05:15;53.00;;;31.70;;
69047;SDS011;56119;50.118;8.642;2023-02-11T06:07:41;54.10;;;32.08;;
69047;SDS011;56119;50.118;8.642;2023-02-11T06:10:08;53.70;;;32.33;;
69047;SDS011;56119;50.118;8.642;2023-02-11T06:12:34;52.65;;;32.33;;
69047;SDS011;56119;50.118;8.642;2023-02-11T06:15:00;56.90;;;32.80;;
69047;SDS011;56119;50.118;8.642;2023-02-11T06:17:26;54.08;;;31.77;;
69047;SDS011;56119;50.118;8.642;2023-02-11T06:20:00;54.55;;;32.38;;
69047;SDS011;56119;50.118;8.642;2023-02-11T06:22:27;57.97;;;32.47;;
69047;SDS011;56119;50.118;8.642;2023-02-11T06:24:53;54.00;;;31.42;;
69047;SDS011;56119;50.118;8.642;2023-02-11T06:27:19;60.28;;;33.40;;
69047;SDS011;56119;50.118;8.642;2023-02-11T06:29:45;56.78;;;33.67;;
69047;SDS011;56119;50.118;8.642;2023-02-11T06:32:12;57.72;;;32.88;;
69047;SDS011;56119;50.118;8.642;2023-02-11T06:34:38;56.53;;;31.97;;
69047;SDS011;56119;50.118;8.642;2023-02-11T06:37:04;57.47;;;31.98;;
69047;SDS011;56119;50.118;8.642;2023-02-11T06:39:30;58.07;;;33.23;;
69047;SDS011;56119;50.118;8.642;2023-02-11T06:41:56;59.40;;;33.30;;
69047;SDS011;56119;50.118;8.642;2023-02-11T06:44:22;55.95;;;33.70;;
69047;SDS011;56119;50.118;8.642;2023-02-11T06:46:48;61.17;;;34.57;;
69047;SDS011;56119;50.118;8.642;2023-02-11T06:49:14;55.30;;;33.00;;
69047;SDS011;56119;50.118;8.642;2023-02-11T06:51:40;61.53;;;33.10;;
69047;SDS011;56119;50.118;8.642;2023-02-11T06:54:06;61.40;;;34.23;;
69047;SDS011;56119;50.118;8.642;2023-02-11T06:56:32;61.47;;;34.70;;
69047;SDS011;56119;50.118;8.642;2023-02-11T06:58:59;60.75;;;37.85;;
69047;SDS011;56119;50.118;8.642;2023-02-11T07:01:25;58.97;;;35.47;;
69047;SDS011;56119;50.118;8.642;2023-02-11T07:03:51;60.90;;;33.50;;
69047;SDS011;56119;50.118;8.642;2023-02-11T07:06:19;52.90;;;30.25;;
69047;SDS011;56119;50.118;8.642;2023-02-11T07:08:45;55.85;;;32.15;;
69047;SDS011;56119;50.118;8.642;2023-02-11T07:11:15;51.13;;;30.80;;
69047;SDS011;56119;50.118;8.642;2023-02-11T07:13:42;57.88;;;33.28;;
69047;SDS011;56119;50.118;8.642;2023-02-11T07:16:09;48.77;;;29.23;;
69047;SDS011;56119;50.118;8.642;2023-02-11T07:18:35;47.10;;;28.67;;
69047;SDS011;56119;50.118;8.642;2023-02-11T07:21:05;51.65;;;30.10;;
69047;SDS011;56119;50.118;8.642;2023-02-11T07:23:31;49.53;;;28.98;;
69047;SDS011;56119;50.118;8.642;2023-02-11T07:25:57;51.92;;;30.58;;
69047;SDS011;56119;50.118;8.642;2023-02-11T07:28:26;48.20;;;29.17;;
69047;SDS011;56119;50.118;8.642;2023-02-11T07:30:52;52.15;;;31.17;;
69047;SDS011;56119;50.118;8.642;2023-02-11T07:33:18;52.65;;;29.63;;
69047;SDS011;56119;50.118;8.642;2023-02-11T07:35:44;51.97;;;30.80;;
69047;SDS011;56119;50.118;8.642;2023-02-11T07:38:10;52.42;;;30.45;;
69047;SDS011;56119;50.118;8.642;2023-02-11T07:40:36;49.70;;;30.15;;
69047;SDS011;56119;50.118;8.642;2023-02-11T07:43:02;48.25;;;29.55;;
69047;SDS011;56119;50.118;8.642;2023-02-11T07:45:28;48.53;;;28.95;;
69047;SDS011;56119;50.118;8.642;2023-02-11T07:47:54;49.08;;;28.50;;
69047;SDS011;56119;50.118;8.642;2023-02-11T07:50:20;52.10;;;29.00;;
69047;SDS011;56119;50.118;8.642;2023-02-11T07:52:46;46.95;;;28.02;;
69047;SDS011;56119;50.118;8.642;2023-02-11T07:55:12;51.67;;;30.55;;
69047;SDS011;56119;50.118;8.642;2023-02-11T07:57:38;50.90;;;29.85;;
69047;SDS011;56119;50.118;8.642;2023-02-11T08:00:05;45.90;;;28.52;;
69047;SDS011;56119;50.118;8.642;2023-02-11T08:02:31;48.63;;;29.33;;
69047;SDS011;56119;50.118;8.642;2023-02-11T08:04:57;48.22;;;30.02;;
69047;SDS011;56119;50.118;8.642;2023-02-11T08:07:23;50.65;;;29.35;;
69047;SDS011;56119;50.118;8.642;2023-02-11T08:09:50;44.38;;;28.05;;
69047;SDS011;56119;50.118;8.642;2023-02-11T08:12:16;48.88;;;28.30;;
69047;SDS011;56119;50.118;8.642;2023-02-11T08:14:42;53.60;;;29.52;;
69047;SDS011;56119;50.118;8.642;2023-02-11T08:17:07;52.50;;;31.42;;
69047;SDS011;56119;50.118;8.642;2023-02-11T08:19:33;45.88;;;28.70;;
69047;SDS011;56119;50.118;8.642;2023-02-11T08:21:59;49.40;;;29.98;;
69047;SDS011;56119;50.118;8.642;2023-02-11T08:24:25;49.05;;;29.27;;
69047;SDS011;56119;50.118;8.642;2023-02-11T08:26:51;49.03;;;29.60;;
69047;SDS011;56119;50.118;8.642;2023-02-11T08:29:17;49.83;;;29.13;;
69047;SDS011;56119;50.118;8.642;2023-02-11T08:31:44;50.47;;;29.40;;
69047;SDS011;56119;50.118;8.642;2023-02-11T08:34:11;48.08;;;29.20;;
69047;SDS011;56119;50.118;8.642;2023-02-11T08:36:38;50.75;;;27.42;;
69047;SDS011;56119;50.118;8.642;2023-02-11T08:39:05;49.00;;;29.52;;
69047;SDS011;56119;50.118;8.642;2023-02-11T08:41:32;48.70;;;27.70;;
69047;SDS011;56119;50.118;8.642;2023-02-11T08:43:59;45.33;;;27.55;;
69047;SDS011;56119;50.118;8.642;2023-02-11T08:46:25;48.60;;;29.35;;
69047;SDS011;56119;50.118;8.642;2023-02-11T08:48:51;44.60;;;28.23;;
69047;SDS011;56119;50.118;8.642;2023-02-11T08:51:19;49.78;;;27.67;;
69047;SDS011;56119;50.118;8.642;2023-02-11T08:53:47;44.70;;;28.58;;
69047;SDS011;56119;50.118;8.642;2023-02-11T08:56:13;47.38;;;28.45;;
69047;SDS011;56119;50.118;8.642;2023-02-11T08:58:40;46.38;;;29.20;;
69047;SDS011;56119;50.118;8.642;2023-02-11T09:01:13;43.20;;;28.27;;
69047;SDS011;56119;50.118;8.642;2023-02-11T09:03:39;46.05;;;28.30;;
69047;SDS011;56119;50.118;8.642;2023-02-11T09:06:05;47.72;;;27.55;;
69047;SDS011;56119;50.118;8.642;2023-02-11T09:08:39;46.58;;;27.75;;
69047;SDS011;56119;50.118;8.642;2023-02-11T09:11:05;43.90;;;28.00;;
69047;SDS011;56119;50.118;8.642;2023-02-11T09:13:31;48.85;;;29.30;;
69047;SDS011;56119;50.118;8.642;2023-02-11T09:15:58;44.20;;;27.48;;
69047;SDS011;56119;50.118;8.642;2023-02-11T09:18:24;42.05;;;27.23;;
69047;SDS011;56119;50.118;8.642;2023-02-11T09:20:50;39.80;;;25.83;;
69047;SDS011;56119;50.118;8.642;2023-02-11T09:23:16;45.60;;;27.98;;
69047;SDS011;56119;50.118;8.642;2023-02-11T09:25:42;45.65;;;27.77;;
69047;SDS011;56119;50.118;8.642;2023-02-11T09:28:08;49.47;;;29.23;;
69047;SDS011;56119;50.118;8.642;2023-02-11T09:30:35;47.20;;;28.63;;
69047;SDS011;56119;50.118;8.642;2023-02-11T09:33:01;44.33;;;27.17;;
69047;SDS011;56119;50.118;8.642;2023-02-11T09:35:27;44.75;;;28.15;;
69047;SDS011;56119;50.118;8.642;2023-02-11T09:37:53;45.35;;;28.27;;
69047;SDS011;56119;50.118;8.642;2023-02-11T09:40:19;46.45;;;28.88;;
69047;SDS011;56119;50.118;8.642;2023-02-11T09:42:52;44.17;;;28.88;;
69047;SDS011;56119;50.118;8.642;2023-02-11T09:45:23;47.80;;;29.45;;
69047;SDS011;56119;50.118;8.642;2023-02-11T09:47:51;46.10;;;28.08;;
69047;SDS011;56119;50.118;8.642;2023-02-11T09:50:21;49.10;;;27.73;;
69047;SDS011;56119;50.118;8.642;2023-02-11T09:55:30;42.55;;;27.27;;
69047;SDS011;56119;50.118;8.642;2023-02-11T09:57:58;44.70;;;28.92;;
69047;SDS011;56119;50.118;8.642;2023-02-11T10:03:10;45.13;;;29.00;;
69047;SDS011;56119;50.118;8.642;2023-02-11T10:20:47;45.25;;;28.33;;
69047;SDS011;56119;50.118;8.642;2023-02-11T10:23:24;43.78;;;28.17;;
69047;SDS011;56119;50.118;8.642;2023-02-11T10:25:51;48.33;;;28.58;;
69047;SDS011;56119;50.118;8.642;2023-02-11T10:28:22;49.42;;;30.17;;
69047;SDS011;56119;50.118;8.642;2023-02-11T10:33:19;46.00;;;29.23;;
69047;SDS011;56119;50.118;8.642;2023-02-11T10:35:47;45.05;;;28.27;;
69047;SDS011;56119;50.118;8.642;2023-02-11T10:38:13;43.80;;;27.48;;
69047;SDS011;56119;50.118;8.642;2023-02-11T10:40:40;41.25;;;26.73;;
69047;SDS011;56119;50.118;8.642;2023-02-11T10:43:09;49.90;;;28.13;;
69047;SDS011;56119;50.118;8.642;2023-02-11T10:45:37;43.35;;;28.85;;
69047;SDS011;56119;50.118;8.642;2023-02-11T10:48:05;45.25;;;27.60;;
69047;SDS011;56119;50.118;8.642;2023-02-11T10:50:32;45.13;;;27.35;;
69047;SDS011;56119;50.118;8.642;2023-02-11T10:53:32;42.20;;;27.40;;
69047;SDS011;56119;50.118;8.642;2023-02-11T10:55:54;42.70;;;26.98;;
69047;SDS011;56119;50.118;8.642;2023-02-11T10:58:28;46.22;;;27.88;;
69047;SDS011;56119;50.118;8.642;2023-02-11T11:00:55;45.45;;;28.67;;
69047;SDS011;56119;50.118;8.642;2023-02-11T11:03:24;43.10;;;28.02;;
69047;SDS011;56119;50.118;8.642;2023-02-11T11:05:55;47.15;;;27.85;;
69047;SDS011;56119;50.118;8.642;2023-02-11T11:08:21;46.78;;;29.40;;
69047;SDS011;56119;50.118;8.642;2023-02-11T11:10:48;47.83;;;28.60;;
69047;SDS011;56119;50.118;8.642;2023-02-11T11:13:31;47.53;;;28.50;;
69047;SDS011;56119;50.118;8.642;2023-02-11T11:18:39;49.65;;;28.60;;
69047;SDS011;56119;50.118;8.642;2023-02-11T11:21:10;47.47;;;27.83;;
69047;SDS011;56119;50.118;8.642;2023-02-11T11:23:36;46.05;;;29.15;;
69047;SDS011;56119;50.118;8.642;2023-02-11T11:26:08;44.75;;;28.08;;
69047;SDS011;56119;50.118;8.642;2023-02-11T11:28:36;42.28;;;26.95;;
69047;SDS011;56119;50.118;8.642;2023-02-11T11:31:04;47.83;;;27.92;;
69047;SDS011;56119;50.118;8.642;2023-02-11T11:33:32;46.28;;;28.38;;
69047;SDS011;56119;50.118;8.642;2023-02-11T11:35:59;45.67;;;26.88;;
69047;SDS011;56119;50.118;8.642;2023-02-11T11:38:26;42.25;;;27.02;;
69047;SDS011;56119;50.118;8.642;2023-02-11T11:41:15;42.08;;;26.90;;
69047;SDS011;56119;50.118;8.642;2023-02-11T11:43:55;45.28;;;27.33;;
69047;SDS011;56119;50.118;8.642;2023-02-11T11:46:33;43.40;;;26.20;;
69047;SDS011;56119;50.118;8.642;2023-02-11T11:49:02;40.55;;;26.50;;
69047;SDS011;56119;50.118;8.642;2023-02-11T11:51:29;45.83;;;27.38;;
69047;SDS011;56119;50.118;8.642;2023-02-11T11:54:01;43.80;;;27.23;;
69047;SDS011;56119;50.118;8.642;2023-02-11T11:56:29;44.88;;;28.42;;
69047;SDS011;56119;50.118;8.642;2023-02-11T11:58:58;44.22;;;27.27;;
69047;SDS011;56119;50.118;8.642;2023-02-11T12:11:54;44.55;;;26.95;;
69047;SDS011;56119;50.118;8.642;2023-02-11T12:14:27;41.53;;;24.90;;
69047;SDS011;56119;50.118;8.642;2023-02-11T12:17:01;42.42;;;26.48;;
69047;SDS011;56119;50.118;8.642;2023-02-11T12:26:59;41.72;;;25.95;;
69047;SDS011;56119;50.118;8.642;2023-02-11T12:32:14;42.20;;;25.83;;
69047;SDS011;56119;50.118;8.642;2023-02-11T12:37:33;44.78;;;24.95;;
69047;SDS011;56119;50.118;8.642;2023-02-11T12:48:20;40.35;;;24.63;;
69047;SDS011;56119;50.118;8.642;2023-02-11T12:53:34;39.88;;;24.80;;
69047;SDS011;56119;50.118;8.642;2023-02-11T12:56:04;36.90;;;24.02;;
69047;SDS011;56119;50.118;8.642;2023-02-11T12:58:34;40.38;;;24.40;;
69047;SDS011;56119;50.118;8.642;2023-02-11T13:01:02;36.97;;;23.65;;
69047;SDS011;56119;50.118;8.642;2023-02-11T13:03:34;40.90;;;24.45;;
69047;SDS011;56119;50.118;8.642;2023-02-11T13:06:02;35.17;;;23.25;;
69047;SDS011;56119;50.118;8.642;2023-02-11T13:08:32;42.65;;;24.25;;
69047;SDS011;56119;50.118;8.642;2023-02-11T13:11:04;38.70;;;24.02;;
69047;SDS011;56119;50.118;8.642;2023-02-11T13:13:45;37.65;;;22.67;;
69047;SDS011;56119;50.118;8.642;2023-02-11T13:16:19;35.03;;;22.15;;
69047;SDS011;56119;50.118;8.642;2023-02-11T13:18:54;40.42;;;24.60;;
69047;SDS011;56119;50.118;8.642;2023-02-11T13:26:45;36.58;;;22.20;;
69047;SDS011;56119;50.118;8.642;2023-02-11T13:29:15;42.55;;;23.42;;
69047;SDS011;56119;50.118;8.642;2023-02-11T13:31:51;37.13;;;21.95;;
69047;SDS011;56119;50.118;8.642;2023-02-11T13:37:02;33.95;;;22.63;;
69047;SDS011;56119;50.118;8.642;2023-02-11T13:39:28;33.72;;;21.33;;
69047;SDS011;56119;50.118;8.642;2023-02-11T13:42:00;33.72;;;21.00;;
69047;SDS011;56119;50.118;8.642;2023-02-11T13:44:27;36.70;;;23.15;;
69047;SDS011;56119;50.118;8.642;2023-02-11T13:46:57;32.90;;;20.35;;
69047;SDS011;56119;50.118;8.642;2023-02-11T13:49:30;39.47;;;22.08;;
69047;SDS011;56119;50.118;8.642;2023-02-11T13:51:57;33.88;;;22.00;;
69047;SDS011;56119;50.118;8.642;2023-02-11T13:54:26;36.17;;;22.08;;
69047;SDS011;56119;50.118;8.642;2023-02-11T14:08:06;33.30;;;20.52;;
69047;SDS011;56119;50.118;8.642;2023-02-11T14:13:34;32.67;;;19.88;;
69047;SDS011;56119;50.118;8.642;2023-02-11T14:16:17;29.73;;;19.88;;
69047;SDS011;56119;50.118;8.642;2023-02-11T14:26:44;33.80;;;19.30;;
69047;SDS011;56119;50.118;8.642;2023-02-11T14:29:23;32.20;;;19.35;;
69047;SDS011;56119;50.118;8.642;2023-02-11T14:40:24;31.50;;;19.23;;
69047;SDS011;56119;50.118;8.642;2023-02-11T14:42:51;33.25;;;19.08;;
69047;SDS011;56119;50.118;8.642;2023-02-11T14:45:22;29.73;;;18.45;;
69047;SDS011;56119;50.118;8.642;2023-02-11T14:47:51;31.08;;;19.95;;
69047;SDS011;56119;50.118;8.642;2023-02-11T14:50:21;28.30;;;19.73;;
69047;SDS011;56119;50.118;8.642;2023-02-11T14:52:49;31.55;;;19.83;;
69047;SDS011;56119;50.118;8.642;2023-02-11T14:55:31;30.08;;;19.05;;
69047;SDS011;56119;50.118;8.642;2023-02-11T15:00:55;30.77;;;19.23;;
69047;SDS011;56119;50.118;8.642;2023-02-11T15:05:58;29.48;;;18.40;;
69047;SDS011;56119;50.118;8.642;2023-02-11T15:08:24;28.98;;;17.42;;
69047;SDS011;56119;50.118;8.642;2023-02-11T15:10:53;26.50;;;17.00;;
69047;SDS011;56119;50.118;8.642;2023-02-11T15:13:21;28.70;;;19.00;;
69047;SDS011;56119;50.118;8.642;2023-02-11T15:15:53;28.10;;;17.73;;
69047;SDS011;56119;50.118;8.642;2023-02-11T15:18:21;28.35;;;17.95;;
69047;SDS011;56119;50.118;8.642;2023-02-11T15:20:48;28.55;;;17.38;;
69047;SDS011;56119;50.118;8.642;2023-02-11T15:23:21;29.90;;;18.25;;
69047;SDS011;56119;50.118;8.642;2023-02-11T15:25:47;25.70;;;17.23;;
69047;SDS011;56119;50.118;8.642;2023-02-11T15:28:23;30.52;;;18.55;;
69047;SDS011;56119;50.118;8.642;2023-02-11T15:30:57;28.00;;;18.10;;
69047;SDS011;56119;50.118;8.642;2023-02-11T15:33:23;28.48;;;17.23;;
69047;SDS011;56119;50.118;8.642;2023-02-11T15:35:50;28.80;;;16.98;;
69047;SDS011;56119;50.118;8.642;2023-02-11T15:38:17;27.00;;;15.93;;
69047;SDS011;56119;50.118;8.642;2023-02-11T15:40:56;30.13;;;17.80;;
69047;SDS011;56119;50.118;8.642;2023-02-11T15:43:24;24.52;;;17.23;;
69047;SDS011;56119;50.118;8.642;2023-02-11T15:46:04;26.23;;;16.27;;
69047;SDS011;56119;50.118;8.642;2023-02-11T15:48:37;27.42;;;16.40;;
69047;SDS011;56119;50.118;8.642;2023-02-11T15:51:11;24.38;;;15.15;;
69047;SDS011;56119;50.118;8.642;2023-02-11T15:53:42;25.17;;;15.57;;
69047;SDS011;56119;50.118;8.642;2023-02-11T15:56:19;26.92;;;15.70;;
69047;SDS011;56119;50.118;8.642;2023-02-11T15:58:49;22.58;;;14.02;;
69047;SDS011;56119;50.118;8.642;2023-02-11T16:01:16;23.85;;;15.30;;
69047;SDS011;56119;50.118;8.642;2023-02-11T16:03:42;24.98;;;14.98;;
69047;SDS011;56119;50.118;8.642;2023-02-11T16:06:15;23.73;;;15.18;;
69047;SDS011;56119;50.118;8.642;2023-02-11T16:08:41;21.98;;;14.70;;
69047;SDS011;56119;50.118;8.642;2023-02-11T16:11:27;22.55;;;14.10;;
69047;SDS011;56119;50.118;8.642;2023-02-11T16:13:55;23.38;;;14.52;;
69047;SDS011;56119;50.118;8.642;2023-02-11T16:16:23;23.80;;;14.45;;
69047;SDS011;56119;50.118;8.642;2023-02-11T16:18:51;22.42;;;15.30;;
69047;SDS011;56119;50.118;8.642;2023-02-11T16:21:17;24.98;;;14.48;;
69047;SDS011;56119;50.118;8.642;2023-02-11T16:23:51;24.73;;;14.88;;
69047;SDS011;56119;50.118;8.642;2023-02-11T16:26:33;22.30;;;14.32;;
69047;SDS011;56119;50.118;8.642;2023-02-11T16:29:11;21.65;;;14.98;;
69047;SDS011;56119;50.118;8.642;2023-02-11T16:31:39;23.40;;;15.30;;
69047;SDS011;56119;50.118;8.642;2023-02-11T16:34:15;23.05;;;14.48;;
69047;SDS011;56119;50.118;8.642;2023-02-11T16:36:41;23.48;;;13.70;;
69047;SDS011;56119;50.118;8.642;2023-02-11T16:39:08;25.83;;;15.30;;
69047;SDS011;56119;50.118;8.642;2023-02-11T16:41:34;26.13;;;15.85;;
69047;SDS011;56119;50.118;8.642;2023-02-11T16:44:00;23.60;;;16.17;;
69047;SDS011;56119;50.118;8.642;2023-02-11T16:46:26;23.52;;;15.13;;